createdAt,value
2023-05-02T00:01:25.228Z,79.69
2023-05-02T00:03:51.998Z,79.66
2023-05-02T00:06:19.117Z,79.48
2023-05-02T00:08:46.312Z,79.88
2023-05-02T00:11:12.938Z,79.56
2023-05-02T00:13:39.585Z,79.83
2023-05-02T00:16:06.515Z,79.72
2023-05-02T00:18:33.321Z,79.54
2023-05-02T00:20:59.974Z,79.82
2023-05-02T00:23:26.992Z,79.98
2023-05-02T00:25:53.604Z,80.07
2023-05-02T00:28:20.253Z,79.86
2023-05-02T00:30:47.285Z,79.95
2023-05-02T00:33:15.894Z,80.38
2023-05-02T00:35:42.793Z,80.17
2023-05-02T00:38:09.650Z,80.44
2023-05-02T00:40:45.196Z,80.49
2023-05-02T00:43:12.253Z,80.68
2023-05-02T00:45:40.951Z,80.97
2023-05-02T00:48:09.309Z,81.23
2023-05-02T00:50:41.836Z,81.48
2023-05-02T00:53:09.806Z,81.62
2023-05-02T00:55:36.994Z,81.09
2023-05-02T00:58:09.034Z,81.26
2023-05-02T01:01:00.353Z,81.60
2023-05-02T01:03:37.685Z,82.06
2023-05-02T01:06:36.965Z,81.89
2023-05-02T01:09:26.729Z,81.69
2023-05-02T01:12:05.572Z,81.92
2023-05-02T01:14:36.715Z,81.97
2023-05-02T01:17:06.607Z,82.21
2023-05-02T01:19:36.853Z,81.77
2023-05-02T01:22:09.603Z,81.95
2023-05-02T01:24:49.205Z,81.47
2023-05-02T01:27:31.143Z,81.56
2023-05-02T01:29:59.719Z,81.50
2023-05-02T01:32:28.276Z,81.82
2023-05-02T01:34:57.337Z,81.49
2023-05-02T01:37:26.768Z,81.94
2023-05-02T01:39:56.204Z,82.17
2023-05-02T01:42:25.747Z,82.01
2023-05-02T01:44:55.142Z,82.23
2023-05-02T01:47:23.162Z,82.29
2023-05-02T01:49:50.031Z,81.57
2023-05-02T01:52:19.489Z,81.90
2023-05-02T01:54:46.888Z,81.77
2023-05-02T01:57:16.734Z,81.69
2023-05-02T01:59:44.763Z,82.01
2023-05-02T02:02:13.981Z,81.57
2023-05-02T02:04:41.893Z,81.39
2023-05-02T02:07:11.653Z,81.41
2023-05-02T02:09:38.427Z,81.75
2023-05-02T02:12:28.437Z,81.81
2023-05-02T02:15:06.963Z,81.46
2023-05-02T02:18:13.861Z,81.47
2023-05-02T02:20:44.045Z,81.19
2023-05-02T02:23:12.108Z,81.31
2023-05-02T02:25:39.725Z,81.02
2023-05-02T02:28:07.667Z,81.32
2023-05-02T02:30:34.685Z,81.59
2023-05-02T02:33:01.465Z,81.24
2023-05-02T02:35:37.678Z,81.20
2023-05-02T02:38:40.822Z,81.08
2023-05-02T02:41:16.671Z,81.26
2023-05-02T02:43:53.837Z,81.18
2023-05-02T02:46:42.436Z,80.79
2023-05-02T02:49:25.815Z,80.91
2023-05-02T02:52:06.137Z,80.82
2023-05-02T02:54:41.955Z,81.09
2023-05-02T02:57:17.951Z,80.51
2023-05-02T02:59:58.336Z,81.08
2023-05-02T03:02:31.034Z,80.73
2023-05-02T03:04:58.738Z,80.41
2023-05-02T03:07:27.951Z,80.20
2023-05-02T03:09:54.653Z,80.53
2023-05-02T03:12:21.378Z,80.01
2023-05-02T03:14:48.359Z,79.98
2023-05-02T03:17:15.072Z,80.27
2023-05-02T03:19:41.734Z,80.15
2023-05-02T03:22:08.399Z,80.20
2023-05-02T03:24:35.045Z,80.13
2023-05-02T03:27:01.863Z,80.11
2023-05-02T03:29:28.856Z,80.66
2023-05-02T03:31:55.698Z,80.41
2023-05-02T03:34:22.423Z,80.34
2023-05-02T03:36:49.314Z,80.31
2023-05-02T03:39:16.459Z,80.38
2023-05-02T03:41:43.989Z,80.42
2023-05-02T03:44:10.816Z,80.22
2023-05-02T03:46:37.642Z,80.40
2023-05-02T03:49:04.350Z,80.61
2023-05-02T03:51:30.972Z,80.38
2023-05-02T03:53:58.580Z,80.19
2023-05-02T03:56:25.255Z,80.38
2023-05-02T03:58:51.897Z,80.29
2023-05-02T04:01:18.711Z,80.24
2023-05-02T04:03:45.484Z,79.84
2023-05-02T04:06:13.263Z,80.18
2023-05-02T04:08:40.068Z,80.28
2023-05-02T04:11:07.270Z,80.47
2023-05-02T04:13:34.256Z,80.53
2023-05-02T04:16:00.925Z,80.52
2023-05-02T04:18:27.560Z,80.22
2023-05-02T04:20:54.186Z,80.40
2023-05-02T04:23:20.860Z,80.50
2023-05-02T04:25:55.178Z,80.55
2023-05-02T04:28:22.876Z,80.64
2023-05-02T04:30:50.772Z,80.85
2023-05-02T04:33:18.698Z,81.04
2023-05-02T04:35:45.570Z,81.22
2023-05-02T04:38:12.326Z,81.04
2023-05-02T04:40:39.071Z,80.65
2023-05-02T04:43:05.858Z,81.30
2023-05-02T04:45:32.828Z,80.85
2023-05-02T04:47:59.645Z,80.90
2023-05-02T04:50:28.223Z,81.17
2023-05-02T04:52:55.241Z,80.89
2023-05-02T04:55:22.094Z,80.98
2023-05-02T04:57:48.748Z,80.84
2023-05-02T05:00:15.956Z,80.78
2023-05-02T05:02:43.370Z,80.93
2023-05-02T05:05:10.251Z,80.89
2023-05-02T05:07:36.989Z,81.10
2023-05-02T05:10:03.893Z,81.18
2023-05-02T05:12:30.594Z,81.09
2023-05-02T05:14:57.347Z,81.17
2023-05-02T05:17:24.297Z,81.13
2023-05-02T05:19:50.921Z,81.15
2023-05-02T05:22:17.810Z,81.18
2023-05-02T05:24:52.630Z,81.00
2023-05-02T05:27:19.262Z,81.21
2023-05-02T05:29:46.056Z,80.84
2023-05-02T05:32:12.906Z,80.91
2023-05-02T05:34:39.552Z,80.99
2023-05-02T05:37:06.432Z,80.96
2023-05-02T05:39:33.294Z,81.04
2023-05-02T05:42:00.801Z,81.13
2023-05-02T05:44:27.493Z,81.02
2023-05-02T05:46:54.785Z,81.32
2023-05-02T05:49:22.236Z,81.57
2023-05-02T05:51:48.921Z,81.01
2023-05-02T05:54:17.363Z,81.08
2023-05-02T05:56:44.810Z,80.92
2023-05-02T05:59:11.406Z,80.92
2023-05-02T06:01:38.221Z,81.16
2023-05-02T06:04:05.340Z,80.84
2023-05-02T06:06:32.598Z,80.83
2023-05-02T06:08:59.696Z,80.61
2023-05-02T06:11:26.711Z,80.33
2023-05-02T06:13:53.925Z,80.31
2023-05-02T06:16:21.008Z,80.27
2023-05-02T06:18:48.028Z,80.40
2023-05-02T06:21:14.701Z,80.40
2023-05-02T06:23:41.786Z,80.53
2023-05-02T06:26:10.122Z,80.68
2023-05-02T06:28:36.953Z,80.61
2023-05-02T06:31:06.094Z,80.18
2023-05-02T06:33:33.849Z,79.80
2023-05-02T06:36:01.830Z,79.92
2023-05-02T06:38:29.265Z,80.21
2023-05-02T06:40:56.010Z,80.22
2023-05-02T06:43:22.732Z,80.00
2023-05-02T06:45:52.402Z,79.85
2023-05-02T06:48:19.321Z,80.42
2023-05-02T06:50:46.227Z,79.87
2023-05-02T06:53:12.899Z,80.12
2023-05-02T06:55:39.637Z,79.74
2023-05-02T06:58:06.346Z,79.33
2023-05-02T07:00:33.378Z,79.68
2023-05-02T07:03:00.145Z,79.41
2023-05-02T07:05:27.016Z,79.68
2023-05-02T07:07:53.631Z,79.39
2023-05-02T07:10:20.511Z,79.07
2023-05-02T07:12:47.187Z,78.80
2023-05-02T07:15:13.988Z,78.96
2023-05-02T07:17:41.120Z,79.06
2023-05-02T07:20:08.870Z,78.79
2023-05-02T07:22:35.560Z,79.19
2023-05-02T07:25:03.076Z,79.23
2023-05-02T07:27:29.756Z,78.10
2023-05-02T07:29:56.524Z,77.98
2023-05-02T07:32:25.320Z,78.34
2023-05-02T07:34:56.306Z,78.50
2023-05-02T07:37:23.342Z,78.82
2023-05-02T07:39:50.052Z,78.47
2023-05-02T07:42:16.794Z,77.91
2023-05-02T07:44:43.473Z,77.75
2023-05-02T07:47:10.202Z,77.81
2023-05-02T07:49:37.005Z,77.52
2023-05-02T07:52:04.658Z,77.66
2023-05-02T07:54:31.316Z,77.29
2023-05-02T07:57:02.300Z,77.43
2023-05-02T07:59:31.227Z,76.56
2023-05-02T08:01:58.143Z,75.49
2023-05-02T08:04:25.216Z,75.43
2023-05-02T08:06:52.036Z,76.21
2023-05-02T08:09:18.766Z,75.80
2023-05-02T08:11:45.529Z,75.59
2023-05-02T08:14:12.319Z,75.28
2023-05-02T08:16:39.117Z,75.60
2023-05-02T08:19:05.947Z,74.51
2023-05-02T08:21:32.836Z,74.67
2023-05-02T08:24:00.380Z,74.56
2023-05-02T08:26:28.052Z,74.77
2023-05-02T08:28:55.680Z,74.59
2023-05-02T08:31:22.578Z,75.51
2023-05-02T08:33:49.416Z,75.80
2023-05-02T08:36:17.939Z,75.46
2023-05-02T08:38:46.020Z,75.07
2023-05-02T08:41:18.241Z,74.91
2023-05-02T08:43:48.085Z,73.69
2023-05-02T08:46:16.707Z,73.53
2023-05-02T08:48:45.787Z,73.67
2023-05-02T08:51:15.839Z,72.61
2023-05-02T08:53:43.222Z,73.13
2023-05-02T08:56:11.670Z,71.79
2023-05-02T08:58:40.339Z,71.51
2023-05-02T09:01:15.403Z,72.43
2023-05-02T09:03:45.005Z,72.07
2023-05-02T09:06:22.675Z,71.69
2023-05-02T09:08:50.898Z,71.66
2023-05-02T09:11:18.264Z,70.37
2023-05-02T09:13:52.247Z,71.42
2023-05-02T09:16:27.136Z,72.07
2023-05-02T09:18:58.675Z,70.67
2023-05-02T09:21:34.868Z,70.27
2023-05-02T09:24:03.366Z,68.51
2023-05-02T09:26:34.297Z,67.62
2023-05-02T09:29:02.805Z,68.08
2023-05-02T09:34:14.958Z,67.54
2023-05-02T09:36:47.042Z,65.72
2023-05-02T09:39:15.815Z,65.05
2023-05-02T09:41:43.791Z,65.03
2023-05-02T09:44:12.477Z,65.82
2023-05-02T09:46:44.570Z,65.22
2023-05-02T09:49:11.525Z,65.12
2023-05-02T09:51:38.401Z,65.13
2023-05-02T09:54:05.087Z,65.96
2023-05-02T09:56:32.005Z,65.71
2023-05-02T09:59:17.258Z,65.06
2023-05-02T10:01:43.931Z,65.29
2023-05-02T10:04:18.917Z,64.67
2023-05-02T10:06:46.212Z,65.47
2023-05-02T10:09:19.599Z,65.11
2023-05-02T10:11:54.059Z,65.71
2023-05-02T10:14:22.783Z,66.37
2023-05-02T10:17:11.177Z,65.23
2023-05-02T10:20:01.436Z,63.83
2023-05-02T10:22:28.659Z,63.63
2023-05-02T10:24:58.467Z,64.30
2023-05-02T10:27:25.773Z,62.53
2023-05-02T10:29:53.033Z,61.82
2023-05-02T10:32:22.703Z,60.64
2023-05-02T10:34:51.861Z,60.40
2023-05-02T10:37:19.580Z,60.25
2023-05-02T10:39:46.308Z,59.76
2023-05-02T10:42:14.392Z,59.32
2023-05-02T10:44:41.758Z,59.67
2023-05-02T10:47:24.624Z,58.35
2023-05-02T10:49:56.807Z,57.38
2023-05-02T10:52:34.416Z,58.71
2023-05-02T10:55:22.511Z,60.46
2023-05-02T10:58:01.092Z,61.19
2023-05-02T11:00:30.449Z,62.09
2023-05-02T11:02:57.433Z,62.70
2023-05-02T11:05:25.636Z,63.41
2023-05-02T11:08:18.633Z,63.17
2023-05-02T11:10:47.396Z,62.57
2023-05-02T11:13:14.160Z,61.19
2023-05-02T11:15:41.025Z,61.06
2023-05-02T11:18:14.621Z,59.87
2023-05-02T11:20:43.316Z,58.83
2023-05-02T11:23:16.399Z,59.27
2023-05-02T11:25:45.287Z,58.69
2023-05-02T11:28:36.883Z,57.97
2023-05-02T11:31:05.107Z,55.10
2023-05-02T11:33:31.993Z,54.53
2023-05-02T11:35:58.897Z,53.07
2023-05-02T11:38:26.833Z,52.02
2023-05-02T11:40:59.416Z,50.83
2023-05-02T11:43:31.267Z,50.09
2023-05-02T11:46:00.315Z,48.64
2023-05-02T11:48:28.118Z,47.71
2023-05-02T11:51:03.738Z,48.34
2023-05-02T11:53:31.481Z,47.29
2023-05-02T11:56:00.243Z,45.86
2023-05-02T11:58:33.437Z,45.17
2023-05-02T12:01:14.744Z,44.10
2023-05-02T12:03:41.968Z,44.04
2023-05-02T12:06:11.663Z,43.29
2023-05-02T12:08:39.993Z,43.51
2023-05-02T12:11:06.945Z,43.16
2023-05-02T12:13:34.057Z,42.70
2023-05-02T12:16:01.280Z,42.40
2023-05-02T12:18:28.480Z,42.22
2023-05-02T12:20:56.672Z,42.90
2023-05-02T12:23:26.353Z,42.60
2023-05-02T12:25:53.380Z,42.50
2023-05-02T12:28:21.048Z,41.59
2023-05-02T12:30:49.748Z,41.32
2023-05-02T12:33:18.392Z,40.82
2023-05-02T12:35:49.048Z,41.83
2023-05-02T12:38:18.206Z,41.61
2023-05-02T12:40:48.841Z,42.51
2023-05-02T12:43:15.702Z,42.33
2023-05-02T12:45:43.793Z,42.46
2023-05-02T12:48:27.394Z,42.26
2023-05-02T12:50:55.442Z,41.32
2023-05-02T12:53:41.793Z,41.77
2023-05-02T12:56:09.003Z,41.81
2023-05-02T12:58:43.096Z,41.48
2023-05-02T13:01:10.662Z,41.10
2023-05-02T13:03:37.567Z,40.95
2023-05-02T13:06:04.488Z,41.04
2023-05-02T13:08:33.408Z,41.05
2023-05-02T13:11:00.922Z,41.53
2023-05-02T13:13:28.052Z,40.60
2023-05-02T13:15:54.749Z,40.18
2023-05-02T13:18:21.775Z,40.04
2023-05-02T13:20:48.564Z,40.94
2023-05-02T13:23:16.963Z,40.71
2023-05-02T13:25:43.734Z,40.42
2023-05-02T13:28:10.456Z,40.82
2023-05-02T13:30:37.151Z,40.47
2023-05-02T13:33:03.947Z,40.73
2023-05-02T13:35:31.088Z,39.65
2023-05-02T13:37:58.890Z,40.11
2023-05-02T13:40:25.824Z,39.96
2023-05-02T13:42:52.456Z,40.07
2023-05-02T13:45:19.119Z,40.52
2023-05-02T13:47:45.803Z,39.90
2023-05-02T13:50:12.670Z,40.07
2023-05-02T13:52:39.348Z,40.81
2023-05-02T13:55:06.829Z,40.98
2023-05-02T13:57:33.505Z,40.41
2023-05-02T14:00:00.407Z,40.35
2023-05-02T14:02:27.649Z,40.30
2023-05-02T14:04:54.418Z,40.82
2023-05-02T14:07:21.074Z,41.12
2023-05-02T14:09:47.759Z,41.29
2023-05-02T14:12:14.402Z,41.18
2023-05-02T14:14:41.064Z,40.85
2023-05-02T14:17:07.792Z,40.68
2023-05-02T14:19:34.524Z,41.02
2023-05-02T14:22:01.235Z,40.94
2023-05-02T14:24:27.939Z,41.69
2023-05-02T14:26:54.582Z,42.27
2023-05-02T14:29:21.270Z,42.22
2023-05-02T14:31:47.981Z,42.73
2023-05-02T14:34:14.659Z,42.07
2023-05-02T14:36:41.378Z,41.33
2023-05-02T14:39:08.016Z,41.40
2023-05-02T14:41:34.630Z,41.32
2023-05-02T14:44:01.330Z,41.33
2023-05-02T14:46:28.036Z,41.56
2023-05-02T14:48:54.693Z,41.83
2023-05-02T14:51:21.368Z,41.87
2023-05-02T14:53:48.970Z,42.04
2023-05-02T14:56:17.320Z,42.42
2023-05-02T14:58:44.247Z,42.64
2023-05-02T15:01:21.831Z,42.75
2023-05-02T15:04:05.257Z,42.74
2023-05-02T15:06:33.193Z,42.87
2023-05-02T15:08:59.986Z,42.07
2023-05-02T15:11:26.821Z,41.41
2023-05-02T15:13:53.452Z,41.67
2023-05-02T15:16:20.232Z,42.29
2023-05-02T15:18:47.050Z,42.25
2023-05-02T15:21:13.648Z,42.79
2023-05-02T15:23:40.608Z,42.13
2023-05-02T15:26:07.254Z,42.43
2023-05-02T15:28:33.901Z,42.50
2023-05-02T15:31:00.533Z,42.34
2023-05-02T15:33:27.226Z,42.43
2023-05-02T15:35:55.919Z,42.42
2023-05-02T15:38:22.740Z,42.44
2023-05-02T15:40:59.588Z,42.29
2023-05-02T15:43:26.910Z,42.14
2023-05-02T15:45:55.194Z,42.61
2023-05-02T15:48:22.948Z,42.39
2023-05-02T15:50:49.889Z,41.71
2023-05-02T15:53:17.071Z,41.56
2023-05-02T15:55:45.928Z,41.17
2023-05-02T15:58:13.171Z,41.16
2023-05-02T16:00:40.065Z,40.40
2023-05-02T16:03:06.843Z,39.54
2023-05-02T16:05:34.094Z,40.09
2023-05-02T16:08:00.952Z,39.87
2023-05-02T16:10:27.693Z,39.23
2023-05-02T16:12:54.575Z,39.12
2023-05-02T16:15:21.845Z,39.38
2023-05-02T16:17:49.169Z,40.15
2023-05-02T16:20:16.904Z,40.88
2023-05-02T16:22:47.730Z,40.80
2023-05-02T16:25:16.199Z,41.29
2023-05-02T16:27:43.448Z,41.44
2023-05-02T16:30:10.827Z,41.49
2023-05-02T16:32:37.853Z,41.73
2023-05-02T16:35:07.423Z,41.91
2023-05-02T16:37:35.089Z,41.80
2023-05-02T16:40:02.401Z,41.71
2023-05-02T16:42:29.615Z,42.11
2023-05-02T16:44:57.557Z,42.45
2023-05-02T16:47:24.253Z,42.34
2023-05-02T16:49:58.454Z,42.04
2023-05-02T16:52:26.005Z,42.70
2023-05-02T16:54:53.058Z,42.74
2023-05-02T16:57:21.184Z,42.67
2023-05-02T16:59:51.245Z,42.71
2023-05-02T17:02:20.117Z,42.99
2023-05-02T17:04:46.882Z,43.22
2023-05-02T17:07:13.589Z,43.26
2023-05-02T17:09:42.090Z,43.36
2023-05-02T17:12:13.229Z,43.67
2023-05-02T17:14:42.383Z,43.36
2023-05-02T17:17:10.428Z,43.76
2023-05-02T17:19:37.332Z,43.78
2023-05-02T17:22:05.310Z,43.72
2023-05-02T17:24:33.252Z,43.73
2023-05-02T17:27:00.966Z,43.91
2023-05-02T17:29:27.664Z,44.21
2023-05-02T17:31:57.055Z,43.96
2023-05-02T17:34:28.467Z,44.37
2023-05-02T17:36:55.129Z,44.29
2023-05-02T17:39:22.907Z,44.41
2023-05-02T17:41:49.663Z,44.69
2023-05-02T17:44:16.511Z,44.49
2023-05-02T17:46:43.422Z,44.61
2023-05-02T17:49:10.303Z,45.05
2023-05-02T17:51:36.937Z,44.65
2023-05-02T17:54:03.816Z,44.91
2023-05-02T17:56:30.757Z,44.64
2023-05-02T17:58:57.432Z,45.35
2023-05-02T18:01:24.139Z,45.23
2023-05-02T18:03:50.912Z,45.38
2023-05-02T18:06:18.798Z,45.51
2023-05-02T18:08:45.853Z,45.56
2023-05-02T18:11:16.761Z,45.54
2023-05-02T18:13:44.091Z,45.55
2023-05-02T18:16:11.008Z,45.52
2023-05-02T18:18:38.619Z,45.93
2023-05-02T18:21:06.211Z,46.01
2023-05-02T18:23:33.909Z,46.15
2023-05-02T18:26:00.688Z,46.25
2023-05-02T18:28:27.592Z,46.02
2023-05-02T18:30:54.226Z,46.19
2023-05-02T18:33:20.955Z,46.64
2023-05-02T18:35:50.747Z,46.61
2023-05-02T18:38:18.433Z,46.73
2023-05-02T18:40:45.358Z,46.57
2023-05-02T18:43:12.081Z,46.65
2023-05-02T18:45:38.815Z,46.65
2023-05-02T18:48:05.831Z,46.21
2023-05-02T18:50:32.577Z,46.86
2023-05-02T18:52:59.220Z,46.69
2023-05-02T18:55:25.938Z,46.83
2023-05-02T18:57:52.612Z,46.92
2023-05-02T19:00:20.464Z,46.91
2023-05-02T19:02:48.047Z,47.00
2023-05-02T19:05:15.197Z,46.43
2023-05-02T19:07:42.409Z,47.27
2023-05-02T19:10:11.022Z,46.91
2023-05-02T19:12:38.080Z,46.99
2023-05-02T19:15:06.633Z,47.55
2023-05-02T19:17:33.776Z,47.16
2023-05-02T19:20:00.535Z,47.51
2023-05-02T19:22:27.748Z,47.63
2023-05-02T19:24:54.693Z,47.66
2023-05-02T19:27:21.323Z,47.99
2023-05-02T19:29:47.953Z,48.11
2023-05-02T19:32:15.013Z,48.32
2023-05-02T19:34:42.115Z,47.88
2023-05-02T19:37:08.854Z,48.17
2023-05-02T19:39:35.501Z,48.01
2023-05-02T19:42:03.218Z,48.20
2023-05-02T19:44:30.551Z,48.36
2023-05-02T19:46:57.172Z,48.64
2023-05-02T19:49:23.850Z,48.51
2023-05-02T19:51:50.526Z,48.89
2023-05-02T19:54:17.163Z,48.78
2023-05-02T19:56:43.785Z,48.32
2023-05-02T19:59:10.508Z,48.86
2023-05-02T20:01:37.216Z,48.46
2023-05-02T20:04:03.918Z,48.65
2023-05-02T20:06:32.341Z,48.85
2023-05-02T20:08:59.181Z,48.85
2023-05-02T20:11:26.325Z,48.79
2023-05-02T20:13:54.063Z,49.40
2023-05-02T20:16:21.208Z,49.49
2023-05-02T20:18:47.995Z,49.02
2023-05-02T20:21:15.027Z,49.49
2023-05-02T20:23:43.620Z,49.39
2023-05-02T20:26:10.594Z,49.25
2023-05-02T20:28:37.888Z,49.56
2023-05-02T20:31:04.655Z,49.28
2023-05-02T20:33:43.824Z,49.17
2023-05-02T20:36:12.680Z,49.81
2023-05-02T20:38:42.369Z,49.62
2023-05-02T20:41:12.648Z,49.94
2023-05-02T20:43:41.257Z,49.86
2023-05-02T20:46:12.265Z,49.81
2023-05-02T20:48:39.036Z,49.80
2023-05-02T20:51:05.734Z,50.49
2023-05-02T20:53:32.407Z,50.28
2023-05-02T20:55:59.078Z,50.08
2023-05-02T20:58:26.051Z,50.11
2023-05-02T21:00:52.799Z,50.39
2023-05-02T21:03:19.873Z,50.53
2023-05-02T21:05:53.353Z,50.68
2023-05-02T21:08:20.595Z,50.64
2023-05-02T21:10:47.572Z,50.45
2023-05-02T21:13:14.305Z,50.65
2023-05-02T21:15:41.267Z,50.45
2023-05-02T21:18:08.054Z,51.12
2023-05-02T21:20:36.007Z,50.74
2023-05-02T21:23:02.728Z,50.46
2023-05-02T21:25:29.515Z,51.02
2023-05-02T21:27:56.580Z,50.67
2023-05-02T21:30:24.518Z,50.89
2023-05-02T21:32:51.475Z,51.55
2023-05-02T21:35:18.189Z,51.65
2023-05-02T21:37:45.038Z,51.60
2023-05-02T21:40:12.327Z,52.01
2023-05-02T21:42:39.086Z,51.87
2023-05-02T21:45:06.752Z,51.90
2023-05-02T21:47:33.573Z,51.61
2023-05-02T21:50:00.627Z,52.01
2023-05-02T21:52:27.448Z,52.03
2023-05-02T21:54:54.393Z,52.63
2023-05-02T21:57:21.287Z,51.76
2023-05-02T21:59:48.244Z,52.02
2023-05-02T22:02:15.091Z,52.51
2023-05-02T22:04:41.806Z,52.60
2023-05-02T22:07:08.475Z,52.37
2023-05-02T22:09:35.176Z,52.37
2023-05-02T22:12:03.003Z,52.42
2023-05-02T22:14:37.640Z,52.60
2023-05-02T22:17:11.673Z,52.55
2023-05-02T22:19:39.331Z,52.49
2023-05-02T22:22:06.745Z,52.42
2023-05-02T22:24:33.990Z,52.75
2023-05-02T22:27:00.896Z,52.77
2023-05-02T22:29:27.584Z,52.62
2023-05-02T22:31:54.305Z,52.60
2023-05-02T22:34:21.004Z,53.48
2023-05-02T22:36:47.667Z,53.05
2023-05-02T22:39:15.733Z,52.96
2023-05-02T22:41:43.088Z,52.87
2023-05-02T22:44:11.074Z,52.97
2023-05-02T22:46:38.904Z,53.24
2023-05-02T22:49:10.415Z,53.18
2023-05-02T22:51:41.590Z,52.85
2023-05-02T22:54:08.530Z,53.42
2023-05-02T22:56:35.381Z,53.81
2023-05-02T22:59:02.102Z,53.75
2023-05-02T23:01:29.071Z,54.09
2023-05-02T23:03:55.988Z,54.05
2023-05-02T23:06:22.942Z,54.28
2023-05-02T23:08:49.621Z,54.24
2023-05-02T23:11:16.302Z,54.10
2023-05-02T23:13:42.953Z,54.36
2023-05-02T23:16:09.658Z,54.63
2023-05-02T23:18:36.400Z,54.71
2023-05-02T23:21:04.261Z,54.40
2023-05-02T23:23:31.251Z,54.26
2023-05-02T23:25:58.269Z,54.54
2023-05-02T23:28:26.095Z,54.58
2023-05-02T23:30:53.694Z,54.54
2023-05-02T23:33:20.588Z,54.63
2023-05-02T23:35:47.438Z,55.16
2023-05-02T23:38:14.175Z,55.18
2023-05-02T23:40:41.165Z,55.04
2023-05-02T23:43:08.933Z,55.41
2023-05-02T23:45:35.676Z,55.59
2023-05-02T23:48:02.414Z,55.68
2023-05-02T23:50:29.107Z,55.32
2023-05-02T23:52:55.720Z,55.78
2023-05-02T23:55:22.333Z,55.73
2023-05-02T23:57:49.028Z,55.34
